메인 페이지
METAR-TAF:

METAR-TAF

공항 :

애빌린, 텍사스, 미국

위도: 32-24-37N, 경도: 099-40-54W, 고도: 545m

현재 날씨관측

예보는 15분 전, 15:41시(UTC)에 발표되었습니다.
남남서22kt, 순간 최대 풍속 31kt
온도 25°C
습도 65%
기압 1015 hPa
시정: 16.1km
고도 2400ft 상공 구름 많음

METAR: KABI 221541Z 20022G31KT 10SM BKN024 25/18 A2996 RMK AO2 PK WND 17032/1458 T02500178

시각: 10:56 (15:56 UTC)

예보

예보는 4 시간 36분 전, 11:20시(UTC)에 발표되었습니다.
예보 대상 시간: 22일 12시부터 23일 12시까지 (UTC)
14kt
시정: 10km
고도 2000ft 상공 구름 보통
일시적
22일 12시부터 22일 15시까지 (UTC)
고도 2000ft 상공 구름 많음
22일 1600시부터 (UTC)
19kt, 순간 최대 풍속 27kt
시정: 10km
고도 25000ft 상공 구름 보통
23일 0000시부터 (UTC)
남남동10kt
시정: 10km
고도 5000ft 상공 구름 보통
23일 1100시부터 (UTC)
13kt, 순간 최대 풍속 23kt
시정: 10km
고도 1500ft 상공 구름 많음

TAF: KABI 221120Z 2212/2312 17014KT P6SM SCT020 TEMPO 2212/2215 BKN020 FM221600 18019G27KT P6SM SCT250 FM230000 16010KT P6SM SCT050 FM231100 36013G23KT P6SM BKN015

4,000개 이상의 공항 관측 자료 및 예보 (METAR 및 TAF 보고).

지도상에서 검색 가능한 기상관측소가 노란 점과 빨간 점으로 표시되어 있습니다.

기상관측소 명을 보려면 표시 위로 마우스를 이동하세요.

날씨 관측과 예보를 보려면 클릭하세요.

지도 변경 : 확대하려면 엑스 표시가 있는 녹색 버튼, 축소하려면 빼기 표시가 있는 녹색 버튼, 다음 페이지의 지도를 보려면 녹색 화살표를 클릭하세요.


METAR-TAF: